sensor_id;sensor_type;location;lat;lon;timestamp;pressure;altitude;pressure_sealevel;temperature;humidity
49947;BME280;35839;48.662;13.300;2024-01-07T00:01:08;96443.84;;;8.39;100.00
49947;BME280;35839;48.662;13.300;2024-01-07T00:03:35;96463.00;;;8.14;100.00
49947;BME280;35839;48.662;13.300;2024-01-07T00:06:04;96457.41;;;8.09;100.00
49947;BME280;35839;48.662;13.300;2024-01-07T00:08:52;96470.28;;;8.53;100.00
49947;BME280;35839;48.662;13.300;2024-01-07T00:11:20;96471.13;;;8.61;100.00
49947;BME280;35839;48.662;13.300;2024-01-07T00:14:05;96469.06;;;8.31;100.00
49947;BME280;35839;48.662;13.300;2024-01-07T00:16:40;96472.88;;;8.02;100.00
49947;BME280;35839;48.662;13.300;2024-01-07T00:19:12;96459.59;;;8.30;100.00
49947;BME280;35839;48.662;13.300;2024-01-07T00:21:44;96442.00;;;8.32;100.00
49947;BME280;35839;48.662;13.300;2024-01-07T00:27:19;96465.28;;;8.25;100.00
49947;BME280;35839;48.662;13.300;2024-01-07T00:29:45;96479.66;;;8.29;100.00
49947;BME280;35839;48.662;13.300;2024-01-07T00:32:11;96476.16;;;8.47;100.00
49947;BME280;35839;48.662;13.300;2024-01-07T00:34:38;96481.53;;;8.45;100.00
49947;BME280;35839;48.662;13.300;2024-01-07T00:37:05;96465.53;;;8.40;100.00
49947;BME280;35839;48.662;13.300;2024-01-07T00:39:49;96470.97;;;8.55;100.00
49947;BME280;35839;48.662;13.300;2024-01-07T00:42:15;96477.56;;;8.33;100.00
49947;BME280;35839;48.662;13.300;2024-01-07T00:44:40;96478.78;;;8.55;100.00
49947;BME280;35839;48.662;13.300;2024-01-07T00:47:05;96478.78;;;8.55;100.00
49947;BME280;35839;48.662;13.300;2024-01-07T00:49:31;96480.44;;;8.56;100.00
49947;BME280;35839;48.662;13.300;2024-01-07T00:51:56;96480.13;;;8.75;100.00
49947;BME280;35839;48.662;13.300;2024-01-07T00:54:21;96490.03;;;8.47;100.00
49947;BME280;35839;48.662;13.300;2024-01-07T00:56:46;96496.31;;;8.36;100.00
49947;BME280;35839;48.662;13.300;2024-01-07T00:59:12;96488.47;;;8.36;100.00
49947;BME280;35839;48.662;13.300;2024-01-07T01:01:37;96490.44;;;8.34;100.00
49947;BME280;35839;48.662;13.300;2024-01-07T01:04:02;96491.50;;;8.50;100.00
49947;BME280;35839;48.662;13.300;2024-01-07T01:06:28;96501.84;;;8.33;100.00
49947;BME280;35839;48.662;13.300;2024-01-07T01:08:53;96494.16;;;8.58;100.00
49947;BME280;35839;48.662;13.300;2024-01-07T01:11:18;96493.09;;;8.42;100.00
49947;BME280;35839;48.662;13.300;2024-01-07T01:13:43;96500.13;;;8.42;100.00
49947;BME280;35839;48.662;13.300;2024-01-07T01:16:09;96501.72;;;8.09;100.00
49947;BME280;35839;48.662;13.300;2024-01-07T01:18:34;96508.16;;;8.22;100.00
49947;BME280;35839;48.662;13.300;2024-01-07T01:20:59;96504.13;;;8.28;100.00
49947;BME280;35839;48.662;13.300;2024-01-07T01:23:25;96503.88;;;8.48;100.00
49947;BME280;35839;48.662;13.300;2024-01-07T01:25:50;96499.34;;;7.81;100.00
49947;BME280;35839;48.662;13.300;2024-01-07T01:28:15;96505.50;;;7.54;100.00
49947;BME280;35839;48.662;13.300;2024-01-07T01:30:40;96500.19;;;7.64;100.00
49947;BME280;35839;48.662;13.300;2024-01-07T01:33:06;96505.25;;;7.91;100.00
49947;BME280;35839;48.662;13.300;2024-01-07T01:35:31;96506.00;;;8.10;100.00
49947;BME280;35839;48.662;13.300;2024-01-07T01:37:56;96503.41;;;8.18;100.00
49947;BME280;35839;48.662;13.300;2024-01-07T01:40:22;96513.38;;;7.88;100.00
49947;BME280;35839;48.662;13.300;2024-01-07T01:42:47;96516.56;;;7.74;100.00
49947;BME280;35839;48.662;13.300;2024-01-07T01:45:15;96508.19;;;7.96;100.00
49947;BME280;35839;48.662;13.300;2024-01-07T01:47:41;96503.56;;;7.82;100.00
49947;BME280;35839;48.662;13.300;2024-01-07T01:50:08;96504.09;;;7.86;100.00
49947;BME280;35839;48.662;13.300;2024-01-07T01:52:35;96509.84;;;7.97;100.00
49947;BME280;35839;48.662;13.300;2024-01-07T01:55:01;96504.03;;;8.12;100.00
49947;BME280;35839;48.662;13.300;2024-01-07T01:57:32;96497.16;;;8.02;100.00
49947;BME280;35839;48.662;13.300;2024-01-07T02:00:02;96503.91;;;8.21;100.00
49947;BME280;35839;48.662;13.300;2024-01-07T02:02:30;96499.72;;;8.29;100.00
49947;BME280;35839;48.662;13.300;2024-01-07T02:04:57;96500.28;;;8.40;100.00
49947;BME280;35839;48.662;13.300;2024-01-07T02:07:24;96510.03;;;8.04;100.00
49947;BME280;35839;48.662;13.300;2024-01-07T02:09:49;96507.66;;;7.58;100.00
49947;BME280;35839;48.662;13.300;2024-01-07T02:12:15;96503.84;;;8.05;100.00
49947;BME280;35839;48.662;13.300;2024-01-07T02:14:40;96505.19;;;8.09;100.00
49947;BME280;35839;48.662;13.300;2024-01-07T02:17:05;96503.31;;;8.36;100.00
49947;BME280;35839;48.662;13.300;2024-01-07T02:19:31;96505.66;;;8.13;100.00
49947;BME280;35839;48.662;13.300;2024-01-07T02:21:56;96508.75;;;8.42;100.00
49947;BME280;35839;48.662;13.300;2024-01-07T02:24:21;96505.16;;;8.43;100.00
49947;BME280;35839;48.662;13.300;2024-01-07T02:26:47;96498.66;;;8.48;100.00
49947;BME280;35839;48.662;13.300;2024-01-07T02:29:13;96502.19;;;8.38;100.00
49947;BME280;35839;48.662;13.300;2024-01-07T02:31:38;96500.56;;;8.37;100.00
49947;BME280;35839;48.662;13.300;2024-01-07T02:34:03;96507.81;;;8.17;100.00
49947;BME280;35839;48.662;13.300;2024-01-07T02:36:29;96506.53;;;8.30;100.00
49947;BME280;35839;48.662;13.300;2024-01-07T02:38:54;96509.81;;;8.32;100.00
49947;BME280;35839;48.662;13.300;2024-01-07T02:41:19;96500.19;;;8.24;100.00
49947;BME280;35839;48.662;13.300;2024-01-07T02:43:46;96502.16;;;8.30;100.00
49947;BME280;35839;48.662;13.300;2024-01-07T02:46:11;96502.06;;;8.40;100.00
49947;BME280;35839;48.662;13.300;2024-01-07T02:48:36;96509.16;;;8.30;100.00
49947;BME280;35839;48.662;13.300;2024-01-07T02:51:02;96504.31;;;8.35;100.00
49947;BME280;35839;48.662;13.300;2024-01-07T02:53:30;96511.16;;;8.36;100.00
49947;BME280;35839;48.662;13.300;2024-01-07T02:55:55;96511.75;;;8.56;100.00
49947;BME280;35839;48.662;13.300;2024-01-07T02:58:21;96514.00;;;8.16;100.00
49947;BME280;35839;48.662;13.300;2024-01-07T03:00:46;96514.03;;;8.24;100.00
49947;BME280;35839;48.662;13.300;2024-01-07T03:03:12;96502.78;;;8.24;100.00
49947;BME280;35839;48.662;13.300;2024-01-07T03:05:37;96511.22;;;8.18;100.00
49947;BME280;35839;48.662;13.300;2024-01-07T03:08:02;96511.94;;;7.68;100.00
49947;BME280;35839;48.662;13.300;2024-01-07T03:10:28;96518.19;;;7.75;100.00
49947;BME280;35839;48.662;13.300;2024-01-07T03:12:53;96515.44;;;7.76;100.00
49947;BME280;35839;48.662;13.300;2024-01-07T03:15:18;96515.22;;;7.70;100.00
49947;BME280;35839;48.662;13.300;2024-01-07T03:17:44;96515.59;;;7.83;100.00
49947;BME280;35839;48.662;13.300;2024-01-07T03:20:09;96517.50;;;7.73;100.00
49947;BME280;35839;48.662;13.300;2024-01-07T03:22:35;96515.31;;;7.86;100.00
49947;BME280;35839;48.662;13.300;2024-01-07T03:25:00;96513.66;;;7.85;100.00
49947;BME280;35839;48.662;13.300;2024-01-07T03:27:26;96521.41;;;7.95;100.00
49947;BME280;35839;48.662;13.300;2024-01-07T03:29:51;96511.88;;;8.20;100.00
49947;BME280;35839;48.662;13.300;2024-01-07T03:32:16;96506.53;;;8.30;100.00
49947;BME280;35839;48.662;13.300;2024-01-07T03:34:42;96517.44;;;8.17;100.00
49947;BME280;35839;48.662;13.300;2024-01-07T03:37:08;96508.25;;;8.05;100.00
49947;BME280;35839;48.662;13.300;2024-01-07T03:39:33;96510.94;;;8.21;100.00
49947;BME280;35839;48.662;13.300;2024-01-07T03:41:58;96514.09;;;8.33;100.00
49947;BME280;35839;48.662;13.300;2024-01-07T03:44:24;96516.88;;;8.39;100.00
49947;BME280;35839;48.662;13.300;2024-01-07T03:46:49;96511.06;;;8.11;100.00
49947;BME280;35839;48.662;13.300;2024-01-07T03:49:14;96520.22;;;8.23;100.00
49947;BME280;35839;48.662;13.300;2024-01-07T03:51:40;96523.31;;;8.27;100.00
49947;BME280;35839;48.662;13.300;2024-01-07T03:54:05;96526.78;;;8.36;100.00
49947;BME280;35839;48.662;13.300;2024-01-07T03:56:30;96531.78;;;7.87;100.00
49947;BME280;35839;48.662;13.300;2024-01-07T03:58:56;96534.84;;;7.82;100.00
49947;BME280;35839;48.662;13.300;2024-01-07T04:01:21;96530.97;;;7.86;100.00
49947;BME280;35839;48.662;13.300;2024-01-07T04:03:46;96529.94;;;8.13;100.00
49947;BME280;35839;48.662;13.300;2024-01-07T04:06:12;96534.94;;;7.98;100.00
49947;BME280;35839;48.662;13.300;2024-01-07T04:08:37;96532.94;;;7.92;100.00
49947;BME280;35839;48.662;13.300;2024-01-07T04:11:03;96537.13;;;7.85;100.00
49947;BME280;35839;48.662;13.300;2024-01-07T04:13:28;96532.72;;;8.12;100.00
49947;BME280;35839;48.662;13.300;2024-01-07T04:15:53;96538.00;;;7.94;100.00
49947;BME280;35839;48.662;13.300;2024-01-07T04:18:19;96538.53;;;7.97;100.00
49947;BME280;35839;48.662;13.300;2024-01-07T04:20:44;96541.88;;;8.16;100.00
49947;BME280;35839;48.662;13.300;2024-01-07T04:23:09;96545.09;;;8.10;100.00
49947;BME280;35839;48.662;13.300;2024-01-07T04:25:34;96545.03;;;8.01;100.00
49947;BME280;35839;48.662;13.300;2024-01-07T04:28:00;96552.56;;;8.05;100.00
49947;BME280;35839;48.662;13.300;2024-01-07T04:30:25;96556.00;;;7.79;100.00
49947;BME280;35839;48.662;13.300;2024-01-07T04:32:50;96557.41;;;7.73;100.00
49947;BME280;35839;48.662;13.300;2024-01-07T04:35:16;96560.53;;;7.77;100.00
49947;BME280;35839;48.662;13.300;2024-01-07T04:37:41;96560.47;;;7.69;100.00
49947;BME280;35839;48.662;13.300;2024-01-07T04:40:07;96565.22;;;7.99;100.00
49947;BME280;35839;48.662;13.300;2024-01-07T04:42:32;96568.13;;;7.88;100.00
49947;BME280;35839;48.662;13.300;2024-01-07T04:44:58;96571.00;;;7.85;100.00
49947;BME280;35839;48.662;13.300;2024-01-07T04:47:25;96573.22;;;7.98;100.00
49947;BME280;35839;48.662;13.300;2024-01-07T04:49:50;96581.31;;;7.69;100.00
49947;BME280;35839;48.662;13.300;2024-01-07T04:52:16;96581.25;;;8.05;100.00
49947;BME280;35839;48.662;13.300;2024-01-07T04:54:41;96574.91;;;7.81;100.00
49947;BME280;35839;48.662;13.300;2024-01-07T04:57:06;96572.66;;;7.86;100.00
49947;BME280;35839;48.662;13.300;2024-01-07T04:59:31;96576.66;;;7.54;100.00
49947;BME280;35839;48.662;13.300;2024-01-07T05:01:57;96579.66;;;7.42;100.00
49947;BME280;35839;48.662;13.300;2024-01-07T05:04:22;96584.81;;;7.59;100.00
49947;BME280;35839;48.662;13.300;2024-01-07T05:06:47;96584.78;;;7.51;100.00
49947;BME280;35839;48.662;13.300;2024-01-07T05:09:13;96584.63;;;7.35;100.00
49947;BME280;35839;48.662;13.300;2024-01-07T05:11:41;96585.13;;;7.56;100.00
49947;BME280;35839;48.662;13.300;2024-01-07T05:14:06;96585.00;;;7.22;100.00
49947;BME280;35839;48.662;13.300;2024-01-07T05:16:31;96581.94;;;7.27;100.00
49947;BME280;35839;48.662;13.300;2024-01-07T05:18:57;96580.16;;;7.45;100.00
49947;BME280;35839;48.662;13.300;2024-01-07T05:21:22;96580.84;;;7.47;100.00
49947;BME280;35839;48.662;13.300;2024-01-07T05:23:47;96581.28;;;7.43;100.00
49947;BME280;35839;48.662;13.300;2024-01-07T05:26:12;96586.41;;;7.52;100.00
49947;BME280;35839;48.662;13.300;2024-01-07T05:28:38;96579.84;;;7.66;100.00
49947;BME280;35839;48.662;13.300;2024-01-07T05:31:03;96591.63;;;7.52;100.00
49947;BME280;35839;48.662;13.300;2024-01-07T05:33:28;96593.50;;;7.60;100.00
49947;BME280;35839;48.662;13.300;2024-01-07T05:35:54;96593.53;;;7.50;100.00
49947;BME280;35839;48.662;13.300;2024-01-07T05:38:19;96591.38;;;7.81;100.00
49947;BME280;35839;48.662;13.300;2024-01-07T05:40:44;96586.72;;;7.49;100.00
49947;BME280;35839;48.662;13.300;2024-01-07T05:43:09;96588.88;;;7.18;100.00
49947;BME280;35839;48.662;13.300;2024-01-07T05:45:35;96600.94;;;7.37;100.00
49947;BME280;35839;48.662;13.300;2024-01-07T05:48:00;96596.00;;;7.34;100.00
49947;BME280;35839;48.662;13.300;2024-01-07T05:50:25;96596.31;;;7.31;100.00
49947;BME280;35839;48.662;13.300;2024-01-07T05:52:51;96599.91;;;6.57;100.00
49947;BME280;35839;48.662;13.300;2024-01-07T05:55:16;96601.75;;;6.74;100.00
49947;BME280;35839;48.662;13.300;2024-01-07T05:57:43;96607.81;;;7.10;100.00
49947;BME280;35839;48.662;13.300;2024-01-07T06:00:08;96602.19;;;7.33;100.00
49947;BME280;35839;48.662;13.300;2024-01-07T06:02:36;96613.25;;;7.71;100.00
49947;BME280;35839;48.662;13.300;2024-01-07T06:05:02;96607.91;;;7.72;100.00
49947;BME280;35839;48.662;13.300;2024-01-07T06:07:28;96608.97;;;7.44;100.00
49947;BME280;35839;48.662;13.300;2024-01-07T06:09:53;96607.88;;;7.46;100.00
49947;BME280;35839;48.662;13.300;2024-01-07T06:12:18;96605.94;;;7.48;100.00
49947;BME280;35839;48.662;13.300;2024-01-07T06:14:44;96602.66;;;7.46;100.00
49947;BME280;35839;48.662;13.300;2024-01-07T06:17:09;96608.53;;;7.48;100.00
49947;BME280;35839;48.662;13.300;2024-01-07T06:19:34;96611.13;;;7.48;100.00
49947;BME280;35839;48.662;13.300;2024-01-07T06:22:00;96611.94;;;7.31;100.00
49947;BME280;35839;48.662;13.300;2024-01-07T06:24:25;96617.16;;;7.49;100.00
49947;BME280;35839;48.662;13.300;2024-01-07T06:26:50;96623.34;;;7.30;100.00
49947;BME280;35839;48.662;13.300;2024-01-07T06:29:15;96614.78;;;7.55;100.00
49947;BME280;35839;48.662;13.300;2024-01-07T06:31:44;96618.84;;;7.76;100.00
49947;BME280;35839;48.662;13.300;2024-01-07T06:34:10;96619.38;;;8.06;100.00
49947;BME280;35839;48.662;13.300;2024-01-07T06:36:38;96624.91;;;8.02;100.00
49947;BME280;35839;48.662;13.300;2024-01-07T06:39:04;96632.13;;;7.65;100.00
49947;BME280;35839;48.662;13.300;2024-01-07T06:41:30;96633.28;;;7.88;100.00
49947;BME280;35839;48.662;13.300;2024-01-07T06:43:55;96640.31;;;7.70;100.00
49947;BME280;35839;48.662;13.300;2024-01-07T06:46:22;96638.59;;;7.43;100.00
49947;BME280;35839;48.662;13.300;2024-01-07T06:48:47;96643.63;;;7.62;100.00
49947;BME280;35839;48.662;13.300;2024-01-07T06:51:14;96645.06;;;7.74;100.00
49947;BME280;35839;48.662;13.300;2024-01-07T06:53:39;96644.31;;;7.64;100.00
49947;BME280;35839;48.662;13.300;2024-01-07T06:56:05;96645.66;;;7.50;100.00
49947;BME280;35839;48.662;13.300;2024-01-07T06:58:30;96649.69;;;7.45;100.00
49947;BME280;35839;48.662;13.300;2024-01-07T07:00:57;96647.31;;;7.51;100.00
49947;BME280;35839;48.662;13.300;2024-01-07T07:03:22;96654.91;;;7.63;100.00
49947;BME280;35839;48.662;13.300;2024-01-07T07:05:48;96665.75;;;7.76;100.00
49947;BME280;35839;48.662;13.300;2024-01-07T07:08:13;96661.69;;;7.99;100.00
49947;BME280;35839;48.662;13.300;2024-01-07T07:10:38;96661.69;;;7.99;100.00
49947;BME280;35839;48.662;13.300;2024-01-07T07:13:04;96665.09;;;7.56;100.00
49947;BME280;35839;48.662;13.300;2024-01-07T07:15:29;96672.75;;;7.39;100.00
49947;BME280;35839;48.662;13.300;2024-01-07T07:17:55;96671.78;;;7.58;100.00
49947;BME280;35839;48.662;13.300;2024-01-07T07:20:20;96670.53;;;7.63;100.00
49947;BME280;35839;48.662;13.300;2024-01-07T07:22:46;96678.84;;;7.84;100.00
49947;BME280;35839;48.662;13.300;2024-01-07T07:25:11;96681.59;;;7.82;100.00
49947;BME280;35839;48.662;13.300;2024-01-07T07:27:36;96696.28;;;7.66;100.00
49947;BME280;35839;48.662;13.300;2024-01-07T07:30:03;96694.94;;;7.62;100.00
49947;BME280;35839;48.662;13.300;2024-01-07T07:32:29;96690.91;;;7.49;100.00
49947;BME280;35839;48.662;13.300;2024-01-07T07:34:54;96695.16;;;7.68;100.00
49947;BME280;35839;48.662;13.300;2024-01-07T07:37:19;96696.59;;;7.63;100.00
49947;BME280;35839;48.662;13.300;2024-01-07T07:39:45;96695.38;;;7.75;100.00
49947;BME280;35839;48.662;13.300;2024-01-07T07:42:10;96704.06;;;8.01;100.00
49947;BME280;35839;48.662;13.300;2024-01-07T07:44:35;96712.88;;;8.00;100.00
49947;BME280;35839;48.662;13.300;2024-01-07T07:47:01;96714.22;;;8.05;100.00
49947;BME280;35839;48.662;13.300;2024-01-07T07:49:26;96718.09;;;7.65;100.00
49947;BME280;35839;48.662;13.300;2024-01-07T07:51:51;96724.81;;;7.67;100.00
49947;BME280;35839;48.662;13.300;2024-01-07T07:54:17;96722.44;;;7.74;100.00
49947;BME280;35839;48.662;13.300;2024-01-07T07:56:42;96727.34;;;7.95;100.00
49947;BME280;35839;48.662;13.300;2024-01-07T07:59:08;96737.25;;;8.09;100.00
49947;BME280;35839;48.662;13.300;2024-01-07T08:01:34;96738.66;;;7.86;100.00
49947;BME280;35839;48.662;13.300;2024-01-07T08:03:59;96737.91;;;7.30;100.00
49947;BME280;35839;48.662;13.300;2024-01-07T08:06:24;96744.88;;;7.39;100.00
49947;BME280;35839;48.662;13.300;2024-01-07T08:08:50;96741.59;;;7.37;100.00
49947;BME280;35839;48.662;13.300;2024-01-07T08:11:15;96752.84;;;7.00;100.00
49947;BME280;35839;48.662;13.300;2024-01-07T08:13:40;96757.16;;;6.25;100.00
49947;BME280;35839;48.662;13.300;2024-01-07T08:16:06;96761.91;;;6.20;100.00
49947;BME280;35839;48.662;13.300;2024-01-07T08:18:32;96769.63;;;5.52;100.00
49947;BME280;35839;48.662;13.300;2024-01-07T08:20:57;96772.72;;;5.96;100.00
49947;BME280;35839;48.662;13.300;2024-01-07T08:23:24;96775.00;;;5.89;100.00
49947;BME280;35839;48.662;13.300;2024-01-07T08:25:50;96769.94;;;5.78;100.00
49947;BME280;35839;48.662;13.300;2024-01-07T08:28:16;96776.25;;;6.43;100.00
49947;BME280;35839;48.662;13.300;2024-01-07T08:30:42;96784.19;;;5.83;100.00
49947;BME280;35839;48.662;13.300;2024-01-07T08:33:07;96786.97;;;6.30;100.00
49947;BME280;35839;48.662;13.300;2024-01-07T08:35:32;96786.66;;;6.43;100.00
49947;BME280;35839;48.662;13.300;2024-01-07T08:37:58;96788.03;;;6.67;100.00
49947;BME280;35839;48.662;13.300;2024-01-07T08:40:23;96788.22;;;6.93;100.00
49947;BME280;35839;48.662;13.300;2024-01-07T08:42:49;96795.63;;;6.88;100.00
49947;BME280;35839;48.662;13.300;2024-01-07T08:45:14;96803.44;;;6.88;100.00
49947;BME280;35839;48.662;13.300;2024-01-07T08:47:40;96796.41;;;6.98;100.00
49947;BME280;35839;48.662;13.300;2024-01-07T08:50:05;96801.31;;;7.01;100.00
49947;BME280;35839;48.662;13.300;2024-01-07T08:52:30;96813.72;;;6.80;100.00
49947;BME280;35839;48.662;13.300;2024-01-07T08:54:56;96815.88;;;6.94;100.00
49947;BME280;35839;48.662;13.300;2024-01-07T08:57:21;96822.31;;;6.90;100.00
49947;BME280;35839;48.662;13.300;2024-01-07T08:59:47;96814.50;;;7.00;100.00
49947;BME280;35839;48.662;13.300;2024-01-07T09:02:12;96821.47;;;7.09;100.00
49947;BME280;35839;48.662;13.300;2024-01-07T09:04:38;96829.88;;;6.93;100.00
49947;BME280;35839;48.662;13.300;2024-01-07T09:07:04;96833.31;;;6.74;100.00
49947;BME280;35839;48.662;13.300;2024-01-07T09:09:29;96831.00;;;6.61;100.00
49947;BME280;35839;48.662;13.300;2024-01-07T09:11:54;96838.34;;;6.95;100.00
49947;BME280;35839;48.662;13.300;2024-01-07T09:14:22;96844.91;;;6.99;100.00
49947;BME280;35839;48.662;13.300;2024-01-07T09:16:47;96849.31;;;6.89;100.00
49947;BME280;35839;48.662;13.300;2024-01-07T09:19:12;96853.94;;;7.05;100.00
49947;BME280;35839;48.662;13.300;2024-01-07T09:21:37;96851.22;;;6.87;100.00
49947;BME280;35839;48.662;13.300;2024-01-07T09:24:03;96855.09;;;6.73;100.00
49947;BME280;35839;48.662;13.300;2024-01-07T09:26:28;96857.00;;;6.71;100.00
49947;BME280;35839;48.662;13.300;2024-01-07T09:28:54;96864.28;;;6.48;100.00
49947;BME280;35839;48.662;13.300;2024-01-07T09:31:19;96867.44;;;6.42;100.00
49947;BME280;35839;48.662;13.300;2024-01-07T09:33:44;96859.59;;;6.22;100.00
49947;BME280;35839;48.662;13.300;2024-01-07T09:36:10;96867.16;;;6.45;100.00
49947;BME280;35839;48.662;13.300;2024-01-07T09:38:35;96874.94;;;5.75;100.00
49947;BME280;35839;48.662;13.300;2024-01-07T09:41:01;96874.94;;;6.25;100.00
49947;BME280;35839;48.662;13.300;2024-01-07T09:43:27;96873.16;;;6.26;100.00
49947;BME280;35839;48.662;13.300;2024-01-07T09:45:53;96866.06;;;6.38;100.00
49947;BME280;35839;48.662;13.300;2024-01-07T09:48:21;96873.44;;;6.23;100.00
49947;BME280;35839;48.662;13.300;2024-01-07T09:50:47;96883.75;;;5.94;100.00
49947;BME280;35839;48.662;13.300;2024-01-07T09:53:19;96873.16;;;6.26;100.00
49947;BME280;35839;48.662;13.300;2024-01-07T09:58:42;96880.28;;;6.14;100.00
49947;BME280;35839;48.662;13.300;2024-01-07T10:01:08;96891.41;;;5.85;100.00
49947;BME280;35839;48.662;13.300;2024-01-07T10:03:33;96894.53;;;5.79;100.00
49947;BME280;35839;48.662;13.300;2024-01-07T10:05:58;96893.06;;;5.56;100.00
49947;BME280;35839;48.662;13.300;2024-01-07T10:08:24;96894.00;;;5.55;100.00
49947;BME280;35839;48.662;13.300;2024-01-07T10:10:49;96888.00;;;5.54;100.00
49947;BME280;35839;48.662;13.300;2024-01-07T10:13:14;96885.09;;;5.78;100.00
49947;BME280;35839;48.662;13.300;2024-01-07T10:15:39;96887.88;;;5.56;100.00
49947;BME280;35839;48.662;13.300;2024-01-07T10:18:06;96902.16;;;5.40;100.00
49947;BME280;35839;48.662;13.300;2024-01-07T10:20:33;96897.53;;;5.84;100.00
49947;BME280;35839;48.662;13.300;2024-01-07T10:23:02;96894.91;;;6.15;100.00
49947;BME280;35839;48.662;13.300;2024-01-07T10:25:30;96892.88;;;6.38;100.00
49947;BME280;35839;48.662;13.300;2024-01-07T10:28:00;96893.97;;;6.26;100.00
49947;BME280;35839;48.662;13.300;2024-01-07T10:30:26;96893.00;;;6.17;100.00
49947;BME280;35839;48.662;13.300;2024-01-07T10:32:59;96900.13;;;5.84;100.00
49947;BME280;35839;48.662;13.300;2024-01-07T10:35:29;96906.78;;;6.08;100.00
49947;BME280;35839;48.662;13.300;2024-01-07T10:37:58;96903.03;;;6.41;100.00
49947;BME280;35839;48.662;13.300;2024-01-07T10:40:26;96903.84;;;6.61;100.00
49947;BME280;35839;48.662;13.300;2024-01-07T10:42:52;96901.38;;;6.50;100.00
49947;BME280;35839;48.662;13.300;2024-01-07T10:45:19;96915.06;;;6.32;100.00
49947;BME280;35839;48.662;13.300;2024-01-07T10:47:48;96905.19;;;6.26;100.00
49947;BME280;35839;48.662;13.300;2024-01-07T10:50:16;96908.47;;;6.48;100.00
49947;BME280;35839;48.662;13.300;2024-01-07T10:52:43;96907.13;;;6.44;100.00
49947;BME280;35839;48.662;13.300;2024-01-07T10:55:09;96918.75;;;5.89;100.00
49947;BME280;35839;48.662;13.300;2024-01-07T10:57:43;96921.19;;;5.81;100.00
49947;BME280;35839;48.662;13.300;2024-01-07T11:00:10;96912.38;;;5.63;100.00
49947;BME280;35839;48.662;13.300;2024-01-07T11:08:54;96920.72;;;5.36;100.00
49947;BME280;35839;48.662;13.300;2024-01-07T11:11:25;96914.09;;;5.83;100.00
49947;BME280;35839;48.662;13.300;2024-01-07T11:13:51;96914.09;;;5.83;100.00
49947;BME280;35839;48.662;13.300;2024-01-07T11:19:04;96915.56;;;5.76;100.00
49947;BME280;35839;48.662;13.300;2024-01-07T11:21:29;96920.50;;;5.48;100.00
49947;BME280;35839;48.662;13.300;2024-01-07T11:23:55;96925.00;;;5.16;100.00
49947;BME280;35839;48.662;13.300;2024-01-07T11:26:20;96928.44;;;5.47;100.00
49947;BME280;35839;48.662;13.300;2024-01-07T11:31:16;96934.06;;;5.31;100.00
49947;BME280;35839;48.662;13.300;2024-01-07T11:33:43;96930.28;;;5.35;100.00
49947;BME280;35839;48.662;13.300;2024-01-07T11:36:11;96932.94;;;4.82;100.00
49947;BME280;35839;48.662;13.300;2024-01-07T11:38:37;96929.28;;;5.05;100.00
49947;BME280;35839;48.662;13.300;2024-01-07T11:41:05;96931.50;;;5.10;100.00
49947;BME280;35839;48.662;13.300;2024-01-07T11:43:31;96937.31;;;5.02;100.00
49947;BME280;35839;48.662;13.300;2024-01-07T11:45:57;96945.09;;;5.02;100.00
49947;BME280;35839;48.662;13.300;2024-01-07T11:48:23;96935.88;;;5.10;100.00
49947;BME280;35839;48.662;13.300;2024-01-07T11:50:48;96940.53;;;4.74;100.00
49947;BME280;35839;48.662;13.300;2024-01-07T11:53:14;96946.38;;;5.08;100.00
49947;BME280;35839;48.662;13.300;2024-01-07T11:55:40;96947.59;;;5.25;100.00
49947;BME280;35839;48.662;13.300;2024-01-07T11:58:05;96940.50;;;5.27;100.00
49947;BME280;35839;48.662;13.300;2024-01-07T12:00:31;96947.81;;;5.01;100.00
49947;BME280;35839;48.662;13.300;2024-01-07T12:02:59;96952.94;;;4.59;100.00
49947;BME280;35839;48.662;13.300;2024-01-07T12:05:24;96959.19;;;4.68;100.00
49947;BME280;35839;48.662;13.300;2024-01-07T12:07:50;96956.03;;;4.64;100.00
49947;BME280;35839;48.662;13.300;2024-01-07T12:10:15;96953.53;;;4.62;100.00
49947;BME280;35839;48.662;13.300;2024-01-07T12:12:42;96954.94;;;4.67;100.00
49947;BME280;35839;48.662;13.300;2024-01-07T12:15:08;96961.28;;;4.74;100.00
49947;BME280;35839;48.662;13.300;2024-01-07T12:17:33;96945.50;;;4.65;100.00
49947;BME280;35839;48.662;13.300;2024-01-07T12:20:00;96962.38;;;4.92;100.00
49947;BME280;35839;48.662;13.300;2024-01-07T12:22:27;96959.19;;;4.68;100.00
49947;BME280;35839;48.662;13.300;2024-01-07T12:25:02;96955.34;;;4.83;100.00
49947;BME280;35839;48.662;13.300;2024-01-07T12:27:28;96956.16;;;4.51;100.00
49947;BME280;35839;48.662;13.300;2024-01-07T12:29:58;96961.09;;;4.54;100.00
49947;BME280;35839;48.662;13.300;2024-01-07T12:32:26;96965.69;;;4.62;100.00
49947;BME280;35839;48.662;13.300;2024-01-07T12:34:51;96965.97;;;4.80;100.00
49947;BME280;35839;48.662;13.300;2024-01-07T12:37:17;96969.88;;;5.06;100.00
49947;BME280;35839;48.662;13.300;2024-01-07T12:39:42;96967.59;;;5.13;100.00
49947;BME280;35839;48.662;13.300;2024-01-07T12:42:07;96968.78;;;5.30;100.00
49947;BME280;35839;48.662;13.300;2024-01-07T12:44:34;96978.03;;;5.75;100.00
49947;BME280;35839;48.662;13.300;2024-01-07T12:46:59;96975.56;;;5.73;100.00
49947;BME280;35839;48.662;13.300;2024-01-07T12:49:24;96965.00;;;5.34;100.00
49947;BME280;35839;48.662;13.300;2024-01-07T12:51:50;96981.81;;;5.61;100.00
49947;BME280;35839;48.662;13.300;2024-01-07T12:54:15;96979.22;;;5.61;100.00
49947;BME280;35839;48.662;13.300;2024-01-07T12:56:41;96983.28;;;5.54;100.00
49947;BME280;35839;48.662;13.300;2024-01-07T12:59:07;96984.88;;;5.76;100.00
49947;BME280;35839;48.662;13.300;2024-01-07T13:01:32;96992.03;;;5.83;100.00